createdAt,value
2019-02-19T00:04:18.579Z,962.2
2019-02-19T00:14:22.078Z,962.3
2019-02-19T00:24:25.608Z,962.4
2019-02-19T00:34:29.105Z,962.5
2019-02-19T00:44:32.625Z,962.5
2019-02-19T00:54:36.146Z,962.6
2019-02-19T01:04:39.651Z,962.7
2019-02-19T01:14:43.163Z,962.8
2019-02-19T01:24:46.657Z,962.8
2019-02-19T01:34:50.151Z,962.9
2019-02-19T01:44:53.658Z,962.8
2019-02-19T01:54:57.163Z,962.9
2019-02-19T02:05:00.700Z,962.8
2019-02-19T02:15:04.209Z,962.9
2019-02-19T02:25:07.725Z,962.9
2019-02-19T02:35:11.833Z,962.9
2019-02-19T02:45:15.372Z,963
2019-02-19T02:55:18.896Z,963
2019-02-19T03:05:22.440Z,963.1
2019-02-19T03:15:25.968Z,963.1
2019-02-19T03:25:29.471Z,963.2
2019-02-19T03:35:32.975Z,963.3
2019-02-19T03:45:36.516Z,963.4
2019-02-19T03:55:40.041Z,963.4
2019-02-19T04:05:43.559Z,963.5
2019-02-19T04:15:47.094Z,963.5
2019-02-19T04:25:50.621Z,963.5
2019-02-19T04:35:54.137Z,963.6
2019-02-19T04:45:57.652Z,963.7
2019-02-19T04:56:01.149Z,963.7
2019-02-19T05:06:04.683Z,963.7
2019-02-19T05:16:08.210Z,963.9
2019-02-19T05:26:11.725Z,963.9
2019-02-19T05:36:15.239Z,963.9
2019-02-19T05:46:18.762Z,963.9
2019-02-19T05:56:22.276Z,963.8
2019-02-19T06:06:25.819Z,963.7
2019-02-19T06:16:29.342Z,963.8
2019-02-19T06:26:32.870Z,965
2019-02-19T06:36:36.391Z,966.5
2019-02-19T06:46:39.907Z,965.6
2019-02-19T06:56:43.436Z,965.2
2019-02-19T07:06:46.943Z,965.1
2019-02-19T07:16:50.483Z,964.8
2019-02-19T07:26:53.984Z,964.5
2019-02-19T07:36:57.494Z,964.2
2019-02-19T07:47:01.035Z,964.1
2019-02-19T07:57:04.565Z,963.9
2019-02-19T08:07:08.075Z,963.7
2019-02-19T08:17:11.592Z,963.6
2019-02-19T08:27:15.108Z,963.6
2019-02-19T08:37:18.629Z,963.6
2019-02-19T08:47:22.107Z,963.4
2019-02-19T08:57:25.645Z,963.5
2019-02-19T09:07:29.172Z,963.4
2019-02-19T09:17:32.670Z,963.4
2019-02-19T09:27:36.181Z,963.2
2019-02-19T09:37:39.659Z,970.2
2019-02-19T09:47:43.124Z,970.2
2019-02-19T09:57:47.644Z,970.2
2019-02-19T10:07:51.198Z,970.3
2019-02-19T10:17:54.700Z,970.2
2019-02-19T10:27:58.206Z,970.1
2019-02-19T10:38:01.726Z,963.8
2019-02-19T10:48:05.194Z,967.9
2019-02-19T10:58:08.708Z,965
2019-02-19T11:08:12.224Z,964
2019-02-19T11:18:15.841Z,963.5
2019-02-19T11:28:19.375Z,970.2
2019-02-19T11:38:22.868Z,969.9
2019-02-19T11:48:26.348Z,969.6
2019-02-19T11:58:29.865Z,969.3
2019-02-19T12:08:39.754Z,969.2
2019-02-19T12:18:46.850Z,969
2019-02-19T12:28:50.381Z,968.7
2019-02-19T12:38:53.907Z,968.6
2019-02-19T12:48:57.394Z,968.5
2019-02-19T12:59:00.915Z,968.4
2019-02-19T13:09:04.412Z,968.2
2019-02-19T13:19:07.960Z,968.2
2019-02-19T13:29:11.478Z,968.1
2019-02-19T13:39:14.989Z,968
2019-02-19T13:49:18.497Z,967.9
2019-02-19T13:59:22.006Z,967.8
2019-02-19T14:09:25.528Z,964
2019-02-19T14:19:29.053Z,965.2
2019-02-19T14:29:32.531Z,964.8
2019-02-19T14:39:36.030Z,963
2019-02-19T14:49:48.070Z,962.2
2019-02-19T14:59:55.084Z,962
2019-02-19T15:09:58.620Z,961.6
2019-02-19T15:20:02.126Z,968.7
2019-02-19T15:30:05.650Z,968.5
2019-02-19T15:40:09.156Z,968.2
2019-02-19T15:50:12.645Z,968.3
2019-02-19T16:00:16.159Z,968.3
2019-02-19T16:10:19.668Z,968
2019-02-19T16:20:23.181Z,968
2019-02-19T16:30:26.678Z,968.2
2019-02-19T16:40:30.235Z,968.1
2019-02-19T16:50:33.766Z,968
2019-02-19T17:00:37.270Z,968.3
2019-02-19T17:10:40.882Z,968.2
2019-02-19T17:20:44.441Z,968.2
2019-02-19T17:30:47.952Z,968.3
2019-02-19T17:40:51.640Z,968.4
2019-02-19T17:50:55.144Z,968.6
2019-02-19T18:00:58.672Z,968.7
2019-02-19T18:11:02.210Z,968.9
2019-02-19T18:21:05.740Z,969.1
2019-02-19T18:31:09.268Z,969.2
2019-02-19T18:41:12.864Z,969.4
2019-02-19T18:51:16.371Z,969.4
2019-02-19T19:01:19.881Z,969.4
2019-02-19T19:11:23.399Z,969.4
2019-02-19T19:21:27.014Z,969.5
2019-02-19T19:31:34.380Z,969.6
2019-02-19T19:41:37.929Z,969.7
2019-02-19T19:51:41.438Z,969.7
2019-02-19T20:01:44.966Z,969.8
2019-02-19T20:11:48.486Z,969.7
2019-02-19T20:21:52.008Z,969.8
2019-02-19T20:31:55.513Z,962.9
2019-02-19T20:41:59.022Z,963.1
2019-02-19T20:52:02.531Z,963.3
2019-02-19T21:02:06.038Z,963.2
2019-02-19T21:12:09.533Z,963.2
2019-02-19T21:22:13.054Z,963.2
2019-02-19T21:32:16.572Z,963.3
2019-02-19T21:42:20.065Z,963
2019-02-19T21:52:23.567Z,963.9
2019-02-19T22:02:27.075Z,964.4
2019-02-19T22:12:30.594Z,964.6
2019-02-19T22:22:34.129Z,964.7
2019-02-19T22:32:37.651Z,965
2019-02-19T22:42:41.145Z,965.1
2019-02-19T22:52:44.656Z,965.4
2019-02-19T23:02:48.245Z,965.4
2019-02-19T23:12:51.771Z,965.6
2019-02-19T23:22:55.274Z,966.1
2019-02-19T23:32:58.789Z,966.1
2019-02-19T23:43:02.282Z,966.2
2019-02-19T23:53:05.781Z,966.3
